Tri-State/Milton J Ferguson Field (HTS)

 

Airport Diagram
Current Weather/Forecast (IFR Conditions)
METAR KHTS 280551Z 36006KT 2 1/2SM -SN BR FEW012 BKN021 OVC037 M02/M04 A3026 RMK AO2 SLP253 P0000 60009 T10221039 10011 21022 51016
TAF KHTS 280523Z 2806/2906 34010KT 3SM -SN BKN013 OVC030 FM280900 34009KT 3SM BR OVC015 FM281200 33008KT P6SM OVC020 FM281500 33008KT P6SM OVC030 FM281800 33008KT P6SM BKN050 FM282200 31009KT P6SM SCT250

Airport Information

All Charts
General
Chart Name View
AIRPORT DIAGRAM
AIRPORT DIAGRAM
TAKEOFF MINIMUMS
ALTERNATE MINIMUMS
RADAR MINIMUMS
TAKEOFF MINIMUMS
ALTERNATE MINIMUMS
RADAR MINIMUMS
HOT SPOT
HOT SPOT

Approaches
Chart Name Download
ILS OR LOC RWY 12
ILS OR LOC RWY 30
RNAV (GPS) RWY 12
RNAV (GPS) RWY 30
ILS OR LOC RWY 12
ILS OR LOC RWY 30
RNAV (GPS) RWY 12
RNAV (GPS) RWY 30


Airport Statistics
Departures Arrivals Local
All Collected Stats since June 2016: 95 92 2
2021 Stats: 3 3 0
January Stats: 3 3 0

Inbound Traffic (Arrivals) - 0

No inbound traffic.


Outbound Traffic (Departures) - 0

No outbound traffic.


Local Traffic (Pattern) - 0

No local traffic.